Time;durP1;ratioP1;P1;durP2;ratioP2;P2;SDS_P1;SDS_P2;PMS_P1;PMS_P2;Temp;Humidity;BMP_temperature;BMP_pressure;BME280_temperature;BME280_humidity;BME280_pressure;Samples;Min_cycle;Max_cycle;Signal;HPM_P1;HPM_P2
2023/07/04 00:01:48;;;;;;;4.38;0.60;;;13.40;99.90;;;;;;5135024;27;20018;-45
2023/07/04 00:04:18;;;;;;;2.85;1.17;;;13.40;99.90;;;;;;5100172;27;20082;-45
2023/07/04 00:06:47;;;;;;;2.10;0.60;;;13.40;99.90;;;;;;5135030;27;20411;-45
2023/07/04 00:09:17;;;;;;;1.95;0.32;;;13.40;99.90;;;;;;5135048;27;20074;-45
2023/07/04 00:11:43;;;;;;;2.80;0.52;;;13.40;99.90;;;;;;5135237;27;20468;-45
2023/07/04 00:14:09;;;;;;;4.50;0.50;;;13.40;99.90;;;;;;5135008;27;20472;-45
2023/07/04 00:16:35;;;;;;;;;;;13.40;99.90;;;;;;5135985;27;20086;-45
2023/07/04 00:19:03;;;;;;;4.75;0.63;;;13.40;99.90;;;;;;5134703;27;19926;-45
2023/07/04 00:21:30;;;;;;;2.83;1.60;;;13.40;99.90;;;;;;5134761;27;20445;-45
2023/07/04 00:23:55;;;;;;;4.82;0.70;;;13.30;99.90;;;;;;5116693;27;20047;-46
2023/07/04 00:26:24;;;;;;;4.13;0.70;;;13.30;99.90;;;;;;5134851;27;20039;-45
2023/07/04 00:28:50;;;;;;;3.58;0.60;;;13.30;99.90;;;;;;5134812;27;20495;-45
2023/07/04 00:31:19;;;;;;;3.20;0.50;;;13.30;99.90;;;;;;5134777;27;20074;-46
2023/07/04 00:33:46;;;;;;;2.58;0.43;;;13.30;99.90;;;;;;5134613;27;20072;-46
2023/07/04 00:36:16;;;;;;;2.05;0.77;;;13.30;99.90;;;;;;5134787;27;20051;-45
2023/07/04 00:38:42;;;;;;;2.45;0.50;;;13.30;99.90;;;;;;5134752;27;20452;-45
2023/07/04 00:41:15;;;;;;;4.40;0.80;;;13.20;99.90;;;;;;5134399;27;20515;-45
2023/07/04 00:43:47;;;;;;;3.60;0.32;;;13.20;99.90;;;;;;5134690;27;20051;-46
2023/07/04 00:46:16;;;;;;;2.25;1.08;;;13.20;99.90;;;;;;5134554;28;20047;-46
2023/07/04 00:48:44;;;;;;;3.50;0.45;;;13.20;99.90;;;;;;5134735;28;20050;-45
2023/07/04 00:51:21;;;;;;;2.70;0.45;;;13.20;99.90;;;;;;5134580;28;20046;-45
2023/07/04 00:53:49;;;;;;;3.13;0.50;;;13.20;99.90;;;;;;5134629;28;20498;-46
2023/07/04 00:56:15;;;;;;;3.08;0.35;;;13.20;99.90;;;;;;5134413;27;20059;-46
2023/07/04 00:58:42;;;;;;;1.27;0.30;;;13.20;99.90;;;;;;5134199;28;20415;-46
2023/07/04 01:01:08;;;;;;;1.27;0.40;;;13.20;99.90;;;;;;5134428;28;20128;-45
2023/07/04 01:03:34;;;;;;;3.10;0.50;;;13.20;99.90;;;;;;5134750;28;20043;-45
2023/07/04 01:06:38;;;;;;;3.70;0.53;;;13.20;99.90;;;;;;5134662;28;20119;-46
2023/07/04 01:09:05;;;;;;;1.98;0.40;;;13.10;99.90;;;;;;5134020;28;20511;-46
2023/07/04 01:11:34;;;;;;;1.05;0.50;;;13.10;99.90;;;;;;5134257;28;20046;-46
2023/07/04 01:14:03;;;;;;;1.98;0.40;;;13.10;99.90;;;;;;5134401;28;20065;-45
2023/07/04 01:16:31;;;;;;;3.63;0.40;;;13.10;99.90;;;;;;5134314;28;20051;-45
2023/07/04 01:18:57;;;;;;;5.25;0.70;;;13.10;99.90;;;;;;5134321;28;20091;-46
2023/07/04 01:21:26;;;;;;;1.95;0.40;;;13.10;99.90;;;;;;5134082;28;20043;-46
2023/07/04 01:24:01;;;;;;;1.67;0.40;;;13.10;99.90;;;;;;5134172;28;20058;-49
2023/07/04 01:26:43;;;;;;;4.57;0.60;;;13.10;99.90;;;;;;5134263;28;20044;-47
2023/07/04 01:29:13;;;;;;;1.00;0.38;;;13.20;99.90;;;;;;5134278;28;20130;-50
2023/07/04 01:31:44;;;;;;;3.30;0.60;;;13.20;99.90;;;;;;5134222;28;20069;-50
2023/07/04 01:34:11;;;;;;;0.82;0.32;;;13.20;99.90;;;;;;5134058;28;20055;-46
2023/07/04 01:36:40;;;;;;;2.28;0.47;;;13.20;99.90;;;;;;5134359;28;20133;-48
2023/07/04 01:39:15;;;;;;;1.13;0.40;;;13.20;99.90;;;;;;5134127;28;20480;-50
2023/07/04 01:41:45;;;;;;;2.15;0.40;;;13.10;99.90;;;;;;5134119;28;20391;-47
2023/07/04 01:44:12;;;;;;;3.20;2.25;;;13.20;99.90;;;;;;5134189;28;20130;-47
2023/07/04 01:46:38;;;;;;;2.58;0.80;;;13.10;99.90;;;;;;5134109;28;20039;-46
2023/07/04 01:49:05;;;;;;;2.30;0.88;;;13.20;99.90;;;;;;5134441;28;20047;-46
2023/07/04 01:51:34;;;;;;;4.70;0.60;;;13.20;99.90;;;;;;5135393;27;20051;-48
2023/07/04 01:54:01;;;;;;;4.70;0.65;;;13.10;99.90;;;;;;5137827;27;20046;-47
2023/07/04 01:56:27;;;;;;;;;;;13.10;99.90;;;;;;5137948;27;20062;-46
2023/07/04 01:58:53;;;;;;;3.03;0.63;;;13.10;99.90;;;;;;5119137;27;20315;-47
2023/07/04 02:01:18;;;;;;;3.27;0.60;;;13.10;99.90;;;;;;5137535;27;20051;-45
2023/07/04 02:03:44;;;;;;;4.45;1.20;;;13.10;99.90;;;;;;5137331;27;20283;-46
2023/07/04 02:06:10;;;;;;;1.87;0.37;;;13.10;99.90;;;;;;5137497;27;20043;-47
2023/07/04 02:08:35;;;;;;;1.67;0.60;;;13.10;99.90;;;;;;5119389;27;20379;-47
2023/07/04 02:11:02;;;;;;;2.30;0.60;;;13.10;99.90;;;;;;5137476;27;20126;-45
2023/07/04 02:13:28;;;;;;;4.38;0.60;;;13.00;99.90;;;;;;5119268;27;20104;-46
2023/07/04 02:15:53;;;;;;;1.55;0.73;;;13.00;99.90;;;;;;5101995;27;20059;-46
2023/07/04 02:18:19;;;;;;;0.60;0.37;;;13.00;99.90;;;;;;5137261;27;20134;-46
2023/07/04 02:20:45;;;;;;;1.37;0.70;;;13.00;99.90;;;;;;5137283;27;20276;-45
2023/07/04 02:23:10;;;;;;;2.13;0.50;;;13.00;99.90;;;;;;5137148;27;20047;-45
2023/07/04 02:25:40;;;;;;;3.53;0.73;;;13.00;99.90;;;;;;5137181;27;20042;-46
2023/07/04 02:28:06;;;;;;;4.13;0.63;;;13.00;99.90;;;;;;5137145;27;20043;-47
2023/07/04 02:30:32;;;;;;;1.20;0.50;;;13.00;99.90;;;;;;5136925;27;20053;-46
2023/07/04 02:32:58;;;;;;;3.30;0.60;;;13.00;99.90;;;;;;5137392;27;20044;-46
2023/07/04 02:35:24;;;;;;;1.97;0.70;;;13.00;99.90;;;;;;5118973;27;20323;-46
2023/07/04 02:37:49;;;;;;;3.42;0.52;;;13.00;99.90;;;;;;5136916;27;20126;-46
2023/07/04 02:40:15;;;;;;;1.53;0.60;;;13.00;99.90;;;;;;5136756;27;20099;-48
2023/07/04 02:42:41;;;;;;;5.53;1.30;;;13.00;99.90;;;;;;5118227;27;20047;-46
2023/07/04 02:45:08;;;;;;;3.17;0.60;;;13.00;99.90;;;;;;5136546;27;20050;-47
2023/07/04 02:47:34;;;;;;;1.58;0.40;;;13.00;99.90;;;;;;5137018;27;20111;-46
2023/07/04 02:49:59;;;;;;;2.20;0.63;;;13.00;99.90;;;;;;5137191;27;20043;-46
2023/07/04 02:52:25;;;;;;;2.27;0.50;;;13.00;99.90;;;;;;5136531;27;20498;-47
2023/07/04 02:54:51;;;;;;;4.88;0.68;;;13.00;99.90;;;;;;5136313;27;20049;-46
2023/07/04 02:57:18;;;;;;;2.70;0.77;;;13.00;99.90;;;;;;5136491;27;20062;-45
2023/07/04 02:59:44;;;;;;;2.33;0.60;;;13.00;99.90;;;;;;5136405;27;20142;-45
2023/07/04 03:02:10;;;;;;;1.90;0.65;;;13.00;99.90;;;;;;5136117;27;20476;-46
2023/07/04 03:04:36;;;;;;;1.80;0.73;;;13.00;99.90;;;;;;5118088;27;20100;-46
2023/07/04 03:07:03;;;;;;;2.60;0.70;;;13.00;99.90;;;;;;5136355;27;20083;-45
2023/07/04 03:09:29;;;;;;;3.60;0.90;;;13.00;99.90;;;;;;5118160;27;20567;-46
2023/07/04 03:11:55;;;;;;;1.25;0.50;;;13.00;99.90;;;;;;5136320;27;20102;-45
2023/07/04 03:14:21;;;;;;;1.43;0.73;;;13.00;99.90;;;;;;5135857;27;20039;-47
2023/07/04 03:16:46;;;;;;;3.40;0.80;;;13.00;99.90;;;;;;5136166;27;20126;-45
2023/07/04 03:19:12;;;;;;;2.35;0.70;;;13.00;99.90;;;;;;5117949;27;20093;-47
2023/07/04 03:21:38;;;;;;;2.90;1.20;;;12.90;99.90;;;;;;5135941;27;20039;-46
2023/07/04 03:24:04;;;;;;;2.17;0.70;;;12.90;99.90;;;;;;5135850;27;20684;-45
2023/07/04 03:26:29;;;;;;;1.77;0.60;;;12.90;99.90;;;;;;5135741;27;20280;-46
2023/07/04 03:28:55;;;;;;;3.33;0.67;;;12.90;99.90;;;;;;5135643;27;20039;-46
2023/07/04 03:31:21;;;;;;;2.83;0.60;;;13.00;99.90;;;;;;5136143;27;20050;-46
2023/07/04 03:33:46;;;;;;;2.23;0.83;;;12.90;99.90;;;;;;5135765;27;20059;-46
2023/07/04 03:36:12;;;;;;;1.73;0.60;;;12.90;99.90;;;;;;5135725;27;20043;-46
2023/07/04 03:38:38;;;;;;;1.67;0.53;;;12.90;99.90;;;;;;5117337;27;20447;-45
2023/07/04 03:41:03;;;;;;;3.03;0.60;;;12.90;99.90;;;;;;5135529;27;20054;-46
2023/07/04 03:43:29;;;;;;;4.57;0.50;;;13.00;99.90;;;;;;5135325;27;20039;-46
2023/07/04 03:45:55;;;;;;;2.93;0.50;;;13.00;99.90;;;;;;5135565;27;20172;-46
2023/07/04 03:48:22;;;;;;;3.55;0.43;;;13.00;99.90;;;;;;5100528;27;20043;-46
2023/07/04 03:50:48;;;;;;;1.95;0.50;;;13.00;99.90;;;;;;5135315;27;20408;-46
2023/07/04 03:53:14;;;;;;;1.33;0.40;;;13.00;99.90;;;;;;5135357;27;20049;-46
2023/07/04 03:55:40;;;;;;;1.97;0.77;;;13.10;99.90;;;;;;5117101;27;20407;-47
2023/07/04 03:58:06;;;;;;;4.53;0.63;;;13.10;99.90;;;;;;5135099;27;20530;-46
2023/07/04 04:00:31;;;;;;;1.97;0.63;;;13.10;99.90;;;;;;5135534;27;20078;-46
2023/07/04 04:02:57;;;;;;;1.50;0.50;;;13.10;99.90;;;;;;5135445;27;20054;-46
2023/07/04 04:05:23;;;;;;;2.60;0.50;;;13.10;99.90;;;;;;5135183;27;20085;-46
2023/07/04 04:07:48;;;;;;;2.38;0.40;;;13.10;99.90;;;;;;5135240;27;20050;-46
2023/07/04 04:10:18;;;;;;;1.77;0.40;;;13.10;99.90;;;;;;5135173;27;20043;-46
2023/07/04 04:12:44;;;;;;;2.72;0.70;;;13.10;99.90;;;;;;5116936;27;20048;-47
2023/07/04 04:15:10;;;;;;;2.10;0.50;;;13.10;99.90;;;;;;5134512;27;20134;-46
2023/07/04 04:17:36;;;;;;;2.05;0.50;;;13.20;99.90;;;;;;5135073;27;20082;-47
2023/07/04 04:20:06;;;;;;;3.65;0.50;;;13.20;99.90;;;;;;5135237;27;20047;-47
2023/07/04 04:22:32;;;;;;;2.60;0.45;;;13.20;99.90;;;;;;5134734;27;20051;-46
2023/07/04 04:24:58;;;;;;;;;;;13.20;99.90;;;;;;5116965;27;20491;-47
2023/07/04 04:27:26;;;;;;;3.28;0.47;;;13.10;99.90;;;;;;5134603;27;19972;-46
2023/07/04 04:29:53;;;;;;;0.55;0.30;;;13.20;99.90;;;;;;5135053;27;20183;-46
2023/07/04 04:32:20;;;;;;;;;;;13.20;99.90;;;;;;5135104;27;20050;-47
2023/07/04 04:34:45;;;;;;;1.17;0.35;;;13.20;99.90;;;;;;5116950;27;20279;-46
2023/07/04 04:37:11;;;;;;;2.03;0.60;;;13.20;99.90;;;;;;5134687;27;20045;-46
2023/07/04 04:39:37;;;;;;;1.97;0.50;;;13.20;99.90;;;;;;5134599;27;20039;-46
2023/07/04 04:42:03;;;;;;;0.75;0.30;;;13.20;99.90;;;;;;5134242;27;20039;-46
2023/07/04 04:44:29;;;;;;;1.38;0.60;;;13.30;99.90;;;;;;5134578;27;20100;-47
2023/07/04 04:46:55;;;;;;;3.53;0.40;;;13.30;99.90;;;;;;5116372;28;20054;-46
2023/07/04 04:49:40;;;;;;;1.58;0.55;;;13.40;99.90;;;;;;5134320;28;20084;-48
2023/07/04 04:52:05;;;;;;;1.98;0.45;;;13.40;99.90;;;;;;5134313;28;20047;-49
2023/07/04 04:54:31;;;;;;;2.35;0.60;;;13.40;99.90;;;;;;5116100;28;20047;-51
2023/07/04 04:56:57;;;;;;;2.07;0.60;;;13.40;99.90;;;;;;5134083;28;20138;-46
2023/07/04 04:59:22;;;;;;;1.13;0.50;;;13.40;99.90;;;;;;5134763;28;20175;-46
2023/07/04 05:01:48;;;;;;;1.73;0.57;;;13.40;99.90;;;;;;5134307;28;20301;-46
2023/07/04 05:04:14;;;;;;;3.37;0.90;;;13.40;99.90;;;;;;5134446;28;20039;-47
2023/07/04 05:06:41;;;;;;;3.40;0.53;;;13.50;99.90;;;;;;5134407;28;20057;-46
2023/07/04 05:09:06;;;;;;;3.05;0.43;;;13.50;99.90;;;;;;5134132;28;20051;-47
2023/07/04 05:11:33;;;;;;;1.30;0.50;;;13.50;99.90;;;;;;5134349;28;20058;-47
2023/07/04 05:14:00;;;;;;;2.45;0.50;;;13.50;99.90;;;;;;5134312;28;20089;-46
2023/07/04 05:16:25;;;;;;;1.55;0.60;;;13.50;99.90;;;;;;5134222;28;20047;-47
2023/07/04 05:18:52;;;;;;;2.92;0.70;;;13.50;99.90;;;;;;5134314;28;20396;-47
2023/07/04 05:21:20;;;;;;;2.20;0.50;;;13.50;99.90;;;;;;5134204;28;20128;-46
2023/07/04 05:23:48;;;;;;;1.55;0.57;;;13.60;99.90;;;;;;5134043;28;20184;-48
2023/07/04 05:26:19;;;;;;;3.13;0.70;;;13.60;99.90;;;;;;5134657;27;20058;-47
2023/07/04 05:28:45;;;;;;;3.55;0.50;;;13.70;99.90;;;;;;5138069;27;20043;-48
2023/07/04 05:31:15;;;;;;;1.67;0.70;;;13.70;99.90;;;;;;5138104;27;20172;-47
2023/07/04 05:33:42;;;;;;;3.22;0.80;;;13.70;99.90;;;;;;5103488;27;20050;-47
2023/07/04 05:36:09;;;;;;;;;;;13.70;99.90;;;;;;5138468;27;20090;-47
2023/07/04 05:38:36;;;;;;;2.38;0.60;;;13.70;99.90;;;;;;5119997;27;19923;-48
2023/07/04 05:41:06;;;;;;;4.03;0.80;;;13.80;99.90;;;;;;5119922;27;20047;-47
2023/07/04 05:43:32;;;;;;;2.15;0.63;;;13.80;99.90;;;;;;5137976;27;20069;-47
2023/07/04 05:45:57;;;;;;;2.37;0.60;;;13.80;99.90;;;;;;5102689;27;20039;-48
2023/07/04 05:48:23;;;;;;;4.80;0.90;;;14.00;99.90;;;;;;5137781;27;20047;-47
2023/07/04 05:50:53;;;;;;;3.27;0.80;;;14.10;99.90;;;;;;5102573;27;20050;-47
2023/07/04 05:53:23;;;;;;;3.03;0.80;;;14.20;99.90;;;;;;5119688;27;20043;-47
2023/07/04 05:55:49;;;;;;;3.97;0.93;;;14.20;99.90;;;;;;5115842;28;20063;-48
2023/07/04 05:58:16;;;;;;;2.42;0.90;;;14.30;99.90;;;;;;5116950;27;20487;-48
2023/07/04 06:00:42;;;;;;;2.42;0.60;;;14.30;99.90;;;;;;5115923;28;20044;-47
2023/07/04 06:03:07;;;;;;;3.57;0.93;;;14.30;99.90;;;;;;5116770;28;20039;-48
2023/07/04 06:05:40;;;;;;;4.83;0.90;;;14.40;99.90;;;;;;5116761;28;20043;-47
2023/07/04 06:08:07;;;;;;;4.10;0.73;;;14.40;99.90;;;;;;5115976;28;20051;-47
2023/07/04 06:10:33;;;;;;;3.60;0.85;;;14.50;99.90;;;;;;5116813;28;20051;-48
2023/07/04 06:12:59;;;;;;;3.78;0.85;;;14.60;99.90;;;;;;5116661;28;20047;-46
2023/07/04 06:15:25;;;;;;;3.33;0.67;;;14.70;99.90;;;;;;5115436;28;20044;-47
2023/07/04 06:17:51;;;;;;;2.28;0.68;;;14.70;99.90;;;;;;5115434;28;20396;-47
2023/07/04 06:20:16;;;;;;;2.63;0.93;;;14.80;99.90;;;;;;5115666;28;20047;-47
2023/07/04 06:22:42;;;;;;;2.20;0.70;;;14.80;99.90;;;;;;5116928;28;20040;-47
2023/07/04 06:25:08;;;;;;;1.73;0.70;;;14.80;99.90;;;;;;5116544;28;20528;-46
2023/07/04 06:27:34;;;;;;;3.53;1.10;;;14.90;99.90;;;;;;5116650;28;20090;-47
2023/07/04 06:30:00;;;;;;;2.38;0.50;;;14.90;99.90;;;;;;5116383;28;20087;-49
2023/07/04 06:32:25;;;;;;;1.73;0.60;;;15.00;99.90;;;;;;5116365;28;20040;-47
2023/07/04 06:34:51;;;;;;;1.23;0.40;;;15.00;99.90;;;;;;5116533;28;20498;-48
2023/07/04 06:37:17;;;;;;;1.17;0.40;;;15.00;99.90;;;;;;5115682;28;20284;-47
2023/07/04 06:39:43;;;;;;;1.08;0.38;;;15.00;99.90;;;;;;5116430;28;20122;-47
2023/07/04 06:42:09;;;;;;;2.53;0.50;;;15.00;99.90;;;;;;5116174;28;20138;-47
2023/07/04 06:44:34;;;;;;;2.30;0.47;;;15.10;99.90;;;;;;5116080;28;20086;-47
2023/07/04 06:47:00;;;;;;;3.23;0.40;;;15.20;99.90;;;;;;5115846;28;20051;-49
2023/07/04 06:49:26;;;;;;;2.22;0.40;;;15.20;99.90;;;;;;5116289;28;20338;-47
2023/07/04 06:51:52;;;;;;;2.20;0.50;;;15.30;99.90;;;;;;5116010;28;20032;-48
2023/07/04 06:54:17;;;;;;;2.43;0.53;;;15.30;99.90;;;;;;5116035;28;20090;-47
2023/07/04 06:56:43;;;;;;;3.10;0.57;;;15.30;99.90;;;;;;5114607;28;20514;-46
2023/07/04 06:59:09;;;;;;;2.83;0.50;;;15.40;99.90;;;;;;5114713;28;20075;-47
2023/07/04 07:01:38;;;;;;;4.10;0.33;;;15.50;99.90;;;;;;5097872;28;20130;-47
2023/07/04 07:04:06;;;;;;;4.25;0.57;;;15.50;99.90;;;;;;5114919;28;20098;-48
2023/07/04 07:06:31;;;;;;;3.17;0.55;;;15.60;99.90;;;;;;5115786;28;20047;-48
2023/07/04 07:08:57;;;;;;;2.13;0.43;;;15.60;99.90;;;;;;5115642;28;20047;-48
2023/07/04 07:11:24;;;;;;;3.33;0.45;;;15.60;99.90;;;;;;5115729;28;20051;-47
2023/07/04 07:13:50;;;;;;;3.55;0.47;;;15.70;99.90;;;;;;5115607;28;20062;-48
2023/07/04 07:16:22;;;;;;;1.20;0.40;;;15.80;99.90;;;;;;5114260;28;20422;-47
2023/07/04 07:18:49;;;;;;;1.42;0.43;;;15.90;99.90;;;;;;5115535;28;20054;-47
2023/07/04 07:21:19;;;;;;;2.33;0.50;;;16.10;99.90;;;;;;5115769;28;20503;-48
2023/07/04 07:23:46;;;;;;;2.25;0.45;;;16.20;99.90;;;;;;5115339;28;20089;-48
2023/07/04 07:26:14;;;;;;;;;;;16.30;99.90;;;;;;5115740;28;20052;-47
2023/07/04 07:28:40;;;;;;;1.60;0.50;;;16.40;99.90;;;;;;5114247;28;20275;-48
2023/07/04 07:31:09;;;;;;;2.50;0.38;;;16.50;99.90;;;;;;5115375;28;20040;-49
2023/07/04 07:33:36;;;;;;;1.90;0.50;;;16.50;99.90;;;;;;5115286;28;20100;-48
2023/07/04 07:36:30;;;;;;;1.92;0.50;;;16.60;99.90;;;;;;5115176;28;20044;-48
2023/07/04 07:38:57;;;;;;;1.45;0.40;;;16.60;99.90;;;;;;5111299;28;20051;-48
2023/07/04 07:41:30;;;;;;;1.98;0.50;;;16.60;99.90;;;;;;5114853;28;20040;-49
2023/07/04 07:43:56;;;;;;;2.33;0.52;;;16.50;99.90;;;;;;5114072;28;20446;-49
2023/07/04 07:46:22;;;;;;;1.75;0.52;;;16.40;99.90;;;;;;5114927;28;20484;-46
2023/07/04 07:48:49;;;;;;;2.60;0.40;;;16.40;99.90;;;;;;5114188;28;20060;-47
2023/07/04 07:51:15;;;;;;;3.03;0.57;;;16.40;99.90;;;;;;5113914;28;20055;-47
2023/07/04 07:53:43;;;;;;;0.57;0.32;;;16.30;99.90;;;;;;5113743;28;20043;-48
2023/07/04 07:56:11;;;;;;;1.20;0.40;;;16.30;99.90;;;;;;5128266;27;20525;-47
2023/07/04 07:58:38;;;;;;;1.10;0.35;;;16.30;99.90;;;;;;5135150;27;20487;-47
2023/07/04 08:01:14;;;;;;;2.45;0.50;;;16.30;99.90;;;;;;5135294;27;20047;-46
2023/07/04 08:03:41;;;;;;;1.20;0.50;;;16.20;99.90;;;;;;5116787;27;20043;-48
2023/07/04 08:06:08;;;;;;;3.58;0.40;;;16.20;99.90;;;;;;5135043;27;20045;-46
2023/07/04 08:08:34;;;;;;;1.80;0.40;;;16.20;99.90;;;;;;5135052;27;20054;-47
2023/07/04 08:10:59;;;;;;;1.63;0.40;;;16.20;99.90;;;;;;5135647;27;20039;-47
2023/07/04 08:13:25;;;;;;;1.70;0.40;;;16.20;99.90;;;;;;5135126;27;20403;-47
2023/07/04 08:15:53;;;;;;;0.98;0.35;;;16.20;99.90;;;;;;5100030;27;20108;-47
2023/07/04 08:18:19;;;;;;;3.22;0.40;;;16.20;99.90;;;;;;5134877;27;20047;-46
2023/07/04 08:20:56;;;;;;;1.35;0.25;;;16.20;99.90;;;;;;5116628;27;20050;-46
2023/07/04 08:23:22;;;;;;;2.30;0.73;;;16.30;99.90;;;;;;5134986;27;20043;-48
2023/07/04 08:25:47;;;;;;;1.58;0.32;;;16.30;99.90;;;;;;5134869;27;20088;-50
2023/07/04 08:28:13;;;;;;;2.05;0.60;;;16.30;99.90;;;;;;5116449;28;20082;-47
2023/07/04 08:30:40;;;;;;;1.93;0.50;;;16.40;99.90;;;;;;5134708;27;20126;-47
2023/07/04 08:33:06;;;;;;;2.08;0.50;;;16.50;99.90;;;;;;5134741;27;20787;-48
2023/07/04 08:35:32;;;;;;;2.70;0.68;;;16.60;99.90;;;;;;5134636;27;20090;-47
2023/07/04 08:37:58;;;;;;;1.40;0.40;;;16.60;99.90;;;;;;5134709;27;20039;-46
2023/07/04 08:40:24;;;;;;;2.15;0.40;;;16.60;99.90;;;;;;5134571;27;20489;-47
2023/07/04 08:42:49;;;;;;;1.77;0.50;;;16.70;99.90;;;;;;5134526;27;20044;-50
2023/07/04 08:45:28;;;;;;;4.00;0.70;;;16.70;99.90;;;;;;5134524;27;20074;-44
2023/07/04 08:47:56;;;;;;;2.60;0.60;;;16.70;99.90;;;;;;5134611;27;20047;-47
2023/07/04 08:50:22;;;;;;;0.93;0.30;;;16.80;99.90;;;;;;5135212;28;20139;-50
2023/07/04 08:52:54;;;;;;;2.87;0.50;;;16.80;99.90;;;;;;5134621;28;20074;-49
2023/07/04 08:55:22;;;;;;;5.97;0.60;;;16.80;99.90;;;;;;5134607;28;20066;-49
2023/07/04 08:58:00;;;;;;;1.55;0.60;;;16.70;99.90;;;;;;5134479;28;20043;-50
2023/07/04 09:00:44;;;;;;;5.65;0.55;;;16.70;99.90;;;;;;5135194;27;20054;-48
2023/07/04 09:03:31;;;;;;;3.88;0.60;;;16.70;99.90;;;;;;5138810;27;20054;-47
2023/07/04 09:06:40;;;;;;;2.30;0.40;;;16.70;99.90;;;;;;5138670;27;20067;-46
2023/07/04 09:09:36;;;;;;;3.55;0.50;;;16.70;99.90;;;;;;5138512;27;20043;-46
2023/07/04 09:12:03;;;;;;;3.58;0.57;;;16.80;99.90;;;;;;5103900;27;20399;-45
2023/07/04 09:14:36;;;;;;;3.40;0.80;;;16.90;99.90;;;;;;5120202;27;20111;-47
2023/07/04 09:17:12;;;;;;;6.38;0.80;;;17.00;99.90;;;;;;5138466;27;20053;-46
2023/07/04 09:19:41;;;;;;;4.90;0.40;;;17.10;99.90;;;;;;5120190;27;20043;-47
2023/07/04 09:22:08;;;;;;;5.65;0.73;;;17.20;99.90;;;;;;5138244;27;20505;-46
2023/07/04 09:24:34;;;;;;;9.07;1.02;;;17.20;99.90;;;;;;5138508;27;20174;-46
2023/07/04 09:27:00;;;;;;;3.75;0.95;;;17.20;99.90;;;;;;5102997;27;20144;-46
2023/07/04 09:29:26;;;;;;;;;;;17.10;99.90;;;;;;5138632;27;20042;-46
2023/07/04 09:31:57;;;;;;;3.55;0.40;;;17.00;99.90;;;;;;5138083;27;20333;-46
2023/07/04 09:34:38;;;;;;;5.50;0.70;;;16.90;99.90;;;;;;5138900;27;20066;-46
2023/07/04 09:37:14;;;;;;;2.88;0.63;;;16.70;99.90;;;;;;5137937;27;20039;-47
2023/07/04 09:39:57;;;;;;;5.25;0.90;;;16.60;99.90;;;;;;5137964;27;20047;-46
2023/07/04 09:42:41;;;;;;;2.08;0.70;;;16.60;99.90;;;;;;5137744;27;20039;-46
2023/07/04 09:45:12;;;;;;;1.58;0.50;;;16.60;99.90;;;;;;5137976;27;20082;-46
2023/07/04 09:47:44;;;;;;;5.00;1.35;;;16.60;99.90;;;;;;5138048;27;20046;-47
2023/07/04 09:50:14;;;;;;;4.45;0.65;;;16.60;99.90;;;;;;5137761;27;20047;-46
2023/07/04 09:52:41;;;;;;;3.53;0.70;;;16.60;99.90;;;;;;5137637;27;20127;-46
2023/07/04 09:55:16;;;;;;;3.42;0.77;;;16.70;99.90;;;;;;5137443;27;20488;-46
2023/07/04 09:57:44;;;;;;;2.67;0.70;;;16.80;99.90;;;;;;5119285;27;20047;-45
2023/07/04 10:00:15;;;;;;;3.42;0.57;;;16.80;99.90;;;;;;5137652;27;20050;-44
2023/07/04 10:02:42;;;;;;;4.00;0.68;;;16.90;99.90;;;;;;5137394;27;20050;-46
2023/07/04 10:05:10;;;;;;;3.40;0.60;;;16.90;99.90;;;;;;5137231;27;20043;-47
2023/07/04 10:07:37;;;;;;;3.10;0.93;;;16.90;99.90;;;;;;5137492;27;20043;-47
2023/07/04 10:10:06;;;;;;;4.13;0.70;;;16.90;99.90;;;;;;5137125;27;20039;-47
2023/07/04 10:12:44;;;;;;;2.95;0.70;;;16.90;99.90;;;;;;5136609;27;20043;-46
2023/07/04 10:15:10;;;;;;;5.88;0.60;;;17.00;99.90;;;;;;5137361;27;20438;-47
2023/07/04 10:17:39;;;;;;;2.67;0.50;;;17.10;99.90;;;;;;5137281;27;20059;-46
2023/07/04 10:20:13;;;;;;;4.82;0.57;;;17.30;99.90;;;;;;5137201;27;20103;-46
2023/07/04 10:22:42;;;;;;;3.35;0.57;;;17.30;99.90;;;;;;5137070;27;20051;-46
2023/07/04 10:25:13;;;;;;;1.65;0.50;;;17.30;99.90;;;;;;5137181;27;20065;-46
2023/07/04 10:27:42;;;;;;;2.60;0.68;;;17.30;99.90;;;;;;5118984;27;20047;-45
2023/07/04 10:30:18;;;;;;;16.73;9.82;;;17.40;99.90;;;;;;5118810;27;20055;-46
2023/07/04 10:32:50;;;;;;;2.97;0.90;;;17.60;99.90;;;;;;5137399;27;20391;-46
2023/07/04 10:35:21;;;;;;;2.05;0.50;;;17.70;99.90;;;;;;5137397;27;20054;-46
2023/07/04 10:37:54;;;;;;;2.78;0.57;;;17.80;99.90;;;;;;5136889;27;20506;-45
2023/07/04 10:40:20;;;;;;;2.67;0.70;;;18.10;99.90;;;;;;5118429;27;20055;-46
2023/07/04 10:43:12;;;;;;;2.88;0.50;;;18.20;99.90;;;;;;5136650;27;20099;-47
2023/07/04 10:45:41;;;;;;;1.90;0.40;;;18.30;99.90;;;;;;5137075;27;20043;-46
2023/07/04 10:48:14;;;;;;;1.67;0.50;;;18.30;99.90;;;;;;5136762;27;20039;-46
2023/07/04 10:50:50;;;;;;;2.38;0.50;;;18.20;99.90;;;;;;5136494;27;20042;-47
2023/07/04 10:53:18;;;;;;;2.65;0.60;;;18.10;99.90;;;;;;5136653;27;20409;-46
2023/07/04 10:56:03;;;;;;;2.35;0.50;;;18.10;99.90;;;;;;5136545;27;20058;-44
2023/07/04 10:58:34;;;;;;;2.22;0.50;;;18.20;99.90;;;;;;5118790;27;20504;-46
2023/07/04 11:01:20;;;;;;;3.03;0.45;;;18.20;99.90;;;;;;5136731;27;20440;-46
2023/07/04 11:04:18;;;;;;;3.03;0.63;;;18.20;99.90;;;;;;5136237;27;20082;-46
2023/07/04 11:07:00;;;;;;;1.70;0.40;;;18.10;99.90;;;;;;5136516;27;20047;-46
2023/07/04 11:09:33;;;;;;;3.15;0.43;;;18.00;99.90;;;;;;5136304;27;20043;-46
2023/07/04 11:12:02;;;;;;;2.65;0.68;;;17.90;99.90;;;;;;5136271;27;20039;-47
2023/07/04 11:14:30;;;;;;;1.50;0.50;;;17.90;99.90;;;;;;5118442;27;20411;-45
2023/07/04 11:17:03;;;;;;;4.15;0.70;;;18.00;99.90;;;;;;5136113;27;20051;-46
2023/07/04 11:19:34;;;;;;;3.08;0.63;;;18.30;99.90;;;;;;5136110;27;20055;-45
2023/07/04 11:22:05;;;;;;;3.42;0.85;;;18.70;99.90;;;;;;5135995;27;20407;-46
2023/07/04 11:25:20;;;;;;;5.00;0.50;;;18.90;99.90;;;;;;5135767;27;20043;-47
2023/07/04 11:28:18;;;;;;;3.85;0.88;;;19.20;99.90;;;;;;5111556;27;20055;-46
2023/07/04 11:30:47;;;;;;;1.83;0.60;;;19.40;99.90;;;;;;5117569;27;20047;-46
2023/07/04 11:33:50;;;;;;;4.47;0.70;;;19.50;99.90;;;;;;5136064;27;20096;-46
2023/07/04 11:36:32;;;;;;;2.60;0.60;;;19.50;99.90;;;;;;5135679;27;20084;-47
2023/07/04 11:39:04;;;;;;;2.08;0.50;;;19.50;99.90;;;;;;5135532;27;20136;-46
2023/07/04 11:41:33;;;;;;;3.78;0.52;;;19.30;99.90;;;;;;5135670;27;20088;-45
2023/07/04 11:44:12;;;;;;;3.33;0.55;;;19.20;99.90;;;;;;5135448;27;20054;-45
2023/07/04 11:46:40;;;;;;;3.35;0.68;;;19.20;99.90;;;;;;5135665;27;20047;-47
2023/07/04 11:49:18;;;;;;;3.55;0.60;;;19.20;99.90;;;;;;5135549;27;20381;-47
2023/07/04 11:51:44;;;;;;;7.15;0.95;;;19.50;99.90;;;;;;5117430;27;20043;-50
2023/07/04 11:54:11;;;;;;;;;;;19.80;99.90;;;;;;5136293;27;20042;-47
2023/07/04 11:56:41;;;;;;;6.55;0.57;;;20.10;99.90;;;;;;5135498;27;19919;-47
2023/07/04 11:59:13;;;;;;;3.53;0.93;;;20.20;99.90;;;;;;5135377;27;20039;-47
2023/07/04 12:01:48;;;;;;;1.40;0.47;;;20.20;99.90;;;;;;5135176;27;20059;-51
2023/07/04 12:04:14;;;;;;;2.95;0.60;;;20.30;99.90;;;;;;5135509;27;20050;-47
2023/07/04 12:06:58;;;;;;;3.15;0.85;;;20.50;99.90;;;;;;5116920;27;20377;-47
2023/07/04 12:09:36;;;;;;;2.70;0.70;;;20.70;99.90;;;;;;5135170;27;20077;-47
2023/07/04 12:12:05;;;;;;;3.38;0.40;;;21.00;99.90;;;;;;5134983;27;20039;-49
2023/07/04 12:14:34;;;;;;;3.67;0.60;;;21.20;99.90;;;;;;5134865;27;20068;-47
2023/07/04 12:17:00;;;;;;;2.15;0.45;;;21.30;99.90;;;;;;5116705;27;20051;-48
2023/07/04 12:19:26;;;;;;;2.33;0.52;;;21.50;99.90;;;;;;5117347;27;20039;-47
2023/07/04 12:21:52;;;;;;;1.83;0.60;;;21.40;99.90;;;;;;5135032;27;20440;-45
2023/07/04 12:24:24;;;;;;;4.60;0.65;;;21.30;99.90;;;;;;5134857;27;20462;-48
2023/07/04 12:26:58;;;;;;;3.05;0.60;;;21.20;99.90;;;;;;5134764;27;20039;-50
2023/07/04 12:29:25;;;;;;;1.85;0.75;;;21.30;99.90;;;;;;5134873;27;20039;-46
2023/07/04 12:32:21;;;;;;;1.60;0.40;;;21.40;99.90;;;;;;5135309;27;20066;-47
2023/07/04 12:34:47;;;;;;;3.40;0.55;;;21.60;99.10;;;;;;5117594;27;20066;-48
2023/07/04 12:37:19;;;;;;;1.70;0.50;;;21.70;99.90;;;;;;5134781;27;20404;-46
2023/07/04 12:39:47;;;;;;;3.85;1.00;;;21.80;99.50;;;;;;5135204;27;20403;-47
2023/07/04 12:42:24;;;;;;;2.25;0.35;;;21.90;99.50;;;;;;5134616;27;20043;-46
2023/07/04 12:44:51;;;;;;;;;;;21.80;99.00;;;;;;5135079;27;20120;-46
2023/07/04 12:47:23;;;;;;;6.50;0.70;;;21.80;99.10;;;;;;5134771;27;19919;-46
2023/07/04 12:49:52;;;;;;;1.77;0.40;;;21.70;99.10;;;;;;5134352;27;20051;-46
2023/07/04 12:52:19;;;;;;;3.28;0.50;;;21.80;98.80;;;;;;5134564;28;20096;-48
2023/07/04 12:54:45;;;;;;;2.80;0.60;;;21.90;98.60;;;;;;5134400;28;20051;-47
2023/07/04 12:57:16;;;;;;;3.70;0.50;;;21.90;98.30;;;;;;5134537;28;20047;-45
2023/07/04 12:59:42;;;;;;;1.17;0.55;;;21.80;98.10;;;;;;5116627;28;20046;-45
2023/07/04 13:02:29;;;;;;;;;;;21.50;97.50;;;;;;5116707;28;20096;-46